createdAt,value
2023-04-27T00:01:42.239Z,0.55
2023-04-27T00:04:09.638Z,0.50
2023-04-27T00:06:36.887Z,0.60
2023-04-27T00:09:04.653Z,0.57
2023-04-27T00:11:31.942Z,0.57
2023-04-27T00:13:58.988Z,0.73
2023-04-27T00:16:26.323Z,0.65
2023-04-27T00:18:53.303Z,0.68
2023-04-27T00:21:20.376Z,0.63
2023-04-27T00:23:47.513Z,0.85
2023-04-27T00:26:14.575Z,0.70
2023-04-27T00:28:44.227Z,0.73
2023-04-27T00:31:11.594Z,0.50
2023-04-27T00:33:38.693Z,0.80
2023-04-27T00:36:06.189Z,0.60
2023-04-27T00:38:33.195Z,0.80
2023-04-27T00:41:07.008Z,0.88
2023-04-27T00:43:41.768Z,0.82
2023-04-27T00:46:09.601Z,0.80
2023-04-27T00:48:37.498Z,0.70
2023-04-27T00:51:05.341Z,0.80
2023-04-27T00:53:34.462Z,1.50
2023-04-27T00:56:01.552Z,1.40
2023-04-27T00:58:29.287Z,1.17
2023-04-27T01:00:56.590Z,1.27
2023-04-27T01:03:23.960Z,1.05
2023-04-27T01:05:51.184Z,1.42
2023-04-27T01:08:18.247Z,1.30
2023-04-27T01:10:45.338Z,1.10
2023-04-27T01:13:12.573Z,1.42
2023-04-27T01:15:39.566Z,1.38
2023-04-27T01:18:10.033Z,1.15
2023-04-27T01:20:38.901Z,1.48
2023-04-27T01:23:06.474Z,1.73
2023-04-27T01:25:33.667Z,1.48
2023-04-27T01:28:03.042Z,1.98
2023-04-27T01:30:30.532Z,1.92
2023-04-27T01:32:59.344Z,2.00
2023-04-27T01:35:28.246Z,1.83
2023-04-27T01:38:00.432Z,1.80
2023-04-27T01:40:27.593Z,1.70
2023-04-27T01:42:54.630Z,1.70
2023-04-27T01:45:21.860Z,1.90
2023-04-27T01:47:52.102Z,1.67
2023-04-27T01:50:20.964Z,2.03
2023-04-27T01:52:47.997Z,2.20
2023-04-27T01:55:15.174Z,2.30
2023-04-27T01:57:43.064Z,2.17
2023-04-27T02:00:10.878Z,2.38
2023-04-27T02:02:53.756Z,2.22
2023-04-27T02:05:22.058Z,2.50
2023-04-27T02:07:49.708Z,2.80
2023-04-27T02:10:16.913Z,2.40
2023-04-27T02:12:45.229Z,2.90
2023-04-27T02:15:12.388Z,2.90
2023-04-27T02:17:40.112Z,3.03
2023-04-27T02:20:07.866Z,3.25
2023-04-27T02:22:35.841Z,3.28
2023-04-27T02:25:03.108Z,3.00
2023-04-27T02:27:30.110Z,2.83
2023-04-27T02:29:58.317Z,2.63
2023-04-27T02:32:25.882Z,2.45
2023-04-27T02:34:52.999Z,3.00
2023-04-27T02:37:19.957Z,2.85
2023-04-27T02:39:47.486Z,2.42
2023-04-27T02:42:14.862Z,2.80
2023-04-27T02:44:43.105Z,2.83
2023-04-27T02:47:11.114Z,2.13
2023-04-27T02:49:38.487Z,2.22
2023-04-27T02:52:05.952Z,2.00
2023-04-27T02:54:33.098Z,2.13
2023-04-27T02:57:00.158Z,2.08
2023-04-27T02:59:27.349Z,2.22
2023-04-27T03:01:54.602Z,1.88
2023-04-27T03:04:21.706Z,2.40
2023-04-27T03:06:49.154Z,2.10
2023-04-27T03:09:16.472Z,1.98
2023-04-27T03:11:43.964Z,2.53
2023-04-27T03:14:12.813Z,2.80
2023-04-27T03:16:40.405Z,2.40
2023-04-27T03:19:07.635Z,2.47
2023-04-27T03:21:34.755Z,2.42
2023-04-27T03:24:01.937Z,2.20
2023-04-27T03:26:28.929Z,2.83
2023-04-27T03:28:57.910Z,2.85
2023-04-27T03:31:28.784Z,2.58
2023-04-27T03:33:55.802Z,2.72
2023-04-27T03:36:22.881Z,3.08
2023-04-27T03:38:50.016Z,2.55
2023-04-27T03:41:17.196Z,2.47
2023-04-27T03:43:44.182Z,3.20
2023-04-27T03:46:11.382Z,3.15
2023-04-27T03:48:38.660Z,3.15
2023-04-27T03:51:06.911Z,2.83
2023-04-27T03:53:34.446Z,2.55
2023-04-27T03:56:02.496Z,2.70
2023-04-27T03:58:29.662Z,3.47
2023-04-27T04:01:19.018Z,3.22
2023-04-27T04:03:48.435Z,3.25
2023-04-27T04:06:15.581Z,3.70
2023-04-27T04:08:42.698Z,2.80
2023-04-27T04:11:10.254Z,3.03
2023-04-27T04:13:37.843Z,3.13
2023-04-27T04:16:06.905Z,3.70
2023-04-27T04:18:35.035Z,3.60
2023-04-27T04:21:02.383Z,3.10
2023-04-27T04:23:29.891Z,3.20
2023-04-27T04:25:57.945Z,3.20
2023-04-27T04:28:28.921Z,2.58
2023-04-27T04:30:56.972Z,2.95
2023-04-27T04:33:24.436Z,3.33
2023-04-27T04:35:51.883Z,2.97
2023-04-27T04:38:19.337Z,3.00
2023-04-27T04:40:46.551Z,3.20
2023-04-27T04:43:13.719Z,2.63
2023-04-27T04:45:42.817Z,3.33
2023-04-27T04:48:14.457Z,3.22
2023-04-27T04:50:42.215Z,3.42
2023-04-27T04:54:18.841Z,3.30
2023-04-27T04:56:48.158Z,2.95
2023-04-27T04:59:15.347Z,3.75
2023-04-27T05:01:42.638Z,3.33
2023-04-27T05:04:09.777Z,2.95
2023-04-27T05:06:36.909Z,3.58
2023-04-27T05:09:06.584Z,3.17
2023-04-27T05:11:33.622Z,3.50
2023-04-27T05:14:00.689Z,3.50
2023-04-27T05:16:27.954Z,3.67
2023-04-27T05:18:55.003Z,3.58
2023-04-27T05:21:22.359Z,4.00
2023-04-27T05:23:49.641Z,3.67
2023-04-27T05:26:18.261Z,3.55
2023-04-27T05:28:47.128Z,3.60
2023-04-27T05:31:14.215Z,3.55
2023-04-27T05:33:41.409Z,3.20
2023-04-27T05:36:09.380Z,3.10
2023-04-27T05:38:40.278Z,3.55
2023-04-27T05:41:07.686Z,3.30
2023-04-27T05:43:35.362Z,3.15
2023-04-27T05:46:02.355Z,3.40
2023-04-27T05:48:29.433Z,3.80
2023-04-27T05:51:03.577Z,3.20
2023-04-27T05:53:31.035Z,2.92
2023-04-27T05:55:59.412Z,3.33
2023-04-27T05:58:26.655Z,2.80
2023-04-27T06:00:54.524Z,3.10
2023-04-27T06:03:21.904Z,2.70
2023-04-27T06:05:58.854Z,3.35
2023-04-27T06:08:27.140Z,3.17
2023-04-27T06:10:54.842Z,2.60
2023-04-27T06:13:21.900Z,3.15
2023-04-27T06:15:49.087Z,2.95
2023-04-27T06:18:16.362Z,2.70
2023-04-27T06:20:43.346Z,3.50
2023-04-27T06:23:10.416Z,3.05
2023-04-27T06:25:39.031Z,3.13
2023-04-27T06:28:06.747Z,2.92
2023-04-27T06:30:33.749Z,3.55
2023-04-27T06:33:00.808Z,2.67
2023-04-27T06:35:27.870Z,3.25
2023-04-27T06:37:58.958Z,4.00
2023-04-27T06:40:27.202Z,2.58
2023-04-27T06:42:54.283Z,2.10
2023-04-27T06:45:21.287Z,3.03
2023-04-27T06:47:48.388Z,2.67
2023-04-27T06:50:16.524Z,2.78
2023-04-27T06:52:43.852Z,2.08
2023-04-27T06:55:11.060Z,2.17
2023-04-27T06:57:38.182Z,2.13
2023-04-27T07:00:05.871Z,2.78
2023-04-27T07:02:33.066Z,2.33
2023-04-27T07:05:00.556Z,2.55
2023-04-27T07:07:27.693Z,2.60
2023-04-27T07:09:54.753Z,3.55
2023-04-27T07:12:21.842Z,2.90
2023-04-27T07:14:50.955Z,2.10
2023-04-27T07:17:18.096Z,3.05
2023-04-27T07:19:45.133Z,2.00
2023-04-27T07:22:12.265Z,2.53
2023-04-27T07:24:39.363Z,2.70
2023-04-27T07:27:06.398Z,2.40
2023-04-27T07:29:34.302Z,2.33
2023-04-27T07:32:01.614Z,2.30
2023-04-27T07:34:35.028Z,2.45
2023-04-27T07:37:09.248Z,2.53
2023-04-27T07:39:36.959Z,1.60
2023-04-27T07:42:04.363Z,2.35
2023-04-27T07:44:31.495Z,1.30
2023-04-27T07:46:58.695Z,2.25
2023-04-27T07:49:26.505Z,1.40
2023-04-27T07:51:53.601Z,2.58
2023-04-27T07:54:20.727Z,1.92
2023-04-27T07:56:47.838Z,1.77
2023-04-27T07:59:15.809Z,1.42
2023-04-27T08:01:43.052Z,1.67
2023-04-27T08:04:10.474Z,1.35
2023-04-27T08:06:38.338Z,1.98
2023-04-27T08:09:06.138Z,1.90
2023-04-27T08:11:33.115Z,1.83
2023-04-27T08:14:00.096Z,1.60
2023-04-27T08:16:27.799Z,1.80
2023-04-27T08:18:54.948Z,2.13
2023-04-27T08:21:21.916Z,2.08
2023-04-27T08:23:48.978Z,1.70
2023-04-27T08:26:16.755Z,1.52
2023-04-27T08:28:43.766Z,2.10
2023-04-27T08:31:10.962Z,1.92
2023-04-27T08:33:38.035Z,2.17
2023-04-27T08:36:05.470Z,1.70
2023-04-27T08:38:34.834Z,1.77
2023-04-27T08:41:14.180Z,1.58
2023-04-27T08:43:49.994Z,2.13
2023-04-27T08:46:21.452Z,2.22
2023-04-27T08:48:52.113Z,1.55
2023-04-27T08:51:20.190Z,1.30
2023-04-27T08:53:52.826Z,1.15
2023-04-27T08:56:23.455Z,1.90
2023-04-27T08:58:50.519Z,2.03
2023-04-27T09:01:18.021Z,1.50
2023-04-27T09:03:49.290Z,2.00
2023-04-27T09:06:16.868Z,1.48
2023-04-27T09:08:45.797Z,2.15
2023-04-27T09:11:14.346Z,1.88
2023-04-27T09:13:45.220Z,1.55
2023-04-27T09:16:16.363Z,1.73
2023-04-27T09:18:44.740Z,1.27
2023-04-27T09:21:21.894Z,2.63
2023-04-27T09:23:48.977Z,1.30
2023-04-27T09:26:22.004Z,1.67
2023-04-27T09:28:51.520Z,1.83
2023-04-27T09:31:18.807Z,2.03
2023-04-27T09:33:46.348Z,1.65
2023-04-27T09:36:14.108Z,2.25
2023-04-27T09:38:41.228Z,1.73
2023-04-27T09:41:09.010Z,1.75
2023-04-27T09:43:36.968Z,1.80
2023-04-27T10:17:16.317Z,1.57
2023-04-27T10:19:57.317Z,1.85
2023-04-27T10:22:37.791Z,2.70
2023-04-27T10:25:19.758Z,2.10
2023-04-27T10:27:52.592Z,1.40
2023-04-27T10:30:21.547Z,1.58
2023-04-27T10:32:59.611Z,1.20
2023-04-27T10:35:41.664Z,2.05
2023-04-27T10:38:09.740Z,1.80
2023-04-27T10:40:38.444Z,1.80
2023-04-27T10:43:10.080Z,1.70
2023-04-27T10:45:37.279Z,1.60
2023-04-27T10:48:05.389Z,1.42
2023-04-27T10:50:32.513Z,1.27
2023-04-27T10:53:07.314Z,1.52
2023-04-27T10:55:35.856Z,1.50
2023-04-27T10:58:04.408Z,2.10
2023-04-27T11:00:34.248Z,1.50
2023-04-27T11:03:13.218Z,1.35
2023-04-27T11:05:40.788Z,1.05
2023-04-27T11:08:20.616Z,1.33
2023-04-27T11:10:50.387Z,1.23
2023-04-27T11:13:22.870Z,1.20
2023-04-27T11:15:55.369Z,0.95
2023-04-27T11:18:24.649Z,1.50
2023-04-27T11:20:53.743Z,2.30
2023-04-27T11:23:29.021Z,1.30
2023-04-27T11:25:56.952Z,1.50
2023-04-27T11:28:24.653Z,1.30
2023-04-27T11:31:00.872Z,1.13
2023-04-27T11:33:28.715Z,1.30
2023-04-27T11:35:56.822Z,1.38
2023-04-27T11:38:24.327Z,1.10
2023-04-27T11:41:06.341Z,1.48
2023-04-27T11:43:34.352Z,1.95
2023-04-27T11:46:06.127Z,1.73
2023-04-27T11:48:33.197Z,1.58
2023-04-27T11:51:01.573Z,1.55
2023-04-27T11:53:36.842Z,1.15
2023-04-27T11:56:05.737Z,1.48
2023-04-27T11:58:37.393Z,1.20
2023-04-27T12:01:05.619Z,1.52
2023-04-27T12:03:32.968Z,1.83
2023-04-27T12:06:16.113Z,1.80
2023-04-27T12:11:14.247Z,1.63
2023-04-27T12:13:41.279Z,0.93
2023-04-27T12:16:08.338Z,1.67
2023-04-27T12:18:35.395Z,1.60
2023-04-27T12:21:03.423Z,1.45
2023-04-27T12:23:31.112Z,1.15
2023-04-27T12:25:58.080Z,1.48
2023-04-27T12:28:25.066Z,1.50
2023-04-27T12:30:52.086Z,1.52
2023-04-27T12:33:19.270Z,1.20
2023-04-27T12:35:46.345Z,1.30
2023-04-27T12:38:13.364Z,1.38
2023-04-27T12:40:40.547Z,1.00
2023-04-27T12:43:08.999Z,1.40
2023-04-27T12:45:35.979Z,1.90
2023-04-27T12:48:04.153Z,1.50
2023-04-27T12:50:32.504Z,1.80
2023-04-27T12:53:00.380Z,1.50
2023-04-27T12:55:33.785Z,1.67
2023-04-27T12:58:02.389Z,1.50
2023-04-27T13:00:29.956Z,1.55
2023-04-27T13:02:57.638Z,1.50
2023-04-27T13:05:24.778Z,1.50
2023-04-27T13:07:52.447Z,1.33
2023-04-27T13:10:19.520Z,1.60
2023-04-27T13:12:46.654Z,1.40
2023-04-27T13:15:13.704Z,1.10
2023-04-27T13:17:43.507Z,1.60
2023-04-27T13:20:11.856Z,1.50
2023-04-27T13:22:40.954Z,2.35
2023-04-27T13:25:09.554Z,1.75
2023-04-27T13:27:36.786Z,1.48
2023-04-27T13:30:05.352Z,1.58
2023-04-27T13:32:32.661Z,1.13
2023-04-27T13:34:59.778Z,1.90
2023-04-27T13:37:27.208Z,1.63
2023-04-27T13:39:54.178Z,1.85
2023-04-27T13:42:21.662Z,1.63
2023-04-27T13:44:48.647Z,1.85
2023-04-27T13:47:15.651Z,1.42
2023-04-27T13:49:42.865Z,3.28
2023-04-27T13:52:09.971Z,2.22
2023-04-27T13:54:37.353Z,1.90
2023-04-27T13:57:04.419Z,1.98
2023-04-27T13:59:31.471Z,1.83
2023-04-27T14:01:58.533Z,1.40
2023-04-27T14:04:25.778Z,1.85
2023-04-27T14:06:52.934Z,2.00
2023-04-27T14:09:20.511Z,1.75
2023-04-27T14:11:56.451Z,2.47
2023-04-27T14:14:24.425Z,1.63
2023-04-27T14:17:23.809Z,2.08
2023-04-27T14:19:50.855Z,1.98
2023-04-27T14:22:18.103Z,1.88
2023-04-27T14:24:45.045Z,1.67
2023-04-27T14:27:12.066Z,1.90
2023-04-27T14:29:39.040Z,1.70
2023-04-27T14:32:06.460Z,1.70
2023-04-27T14:34:33.530Z,1.85
2023-04-27T14:37:00.670Z,2.33
2023-04-27T14:39:28.255Z,2.05
2023-04-27T14:41:55.246Z,2.83
2023-04-27T14:44:22.391Z,2.55
2023-04-27T14:46:49.382Z,2.38
2023-04-27T14:49:16.649Z,2.47
2023-04-27T14:51:43.873Z,2.25
2023-04-27T14:54:11.424Z,2.53
2023-04-27T14:56:38.383Z,2.65
2023-04-27T14:59:05.788Z,2.05
2023-04-27T15:01:32.795Z,2.05
2023-04-27T15:03:59.994Z,2.63
2023-04-27T15:06:30.486Z,2.20
2023-04-27T15:08:57.805Z,1.90
2023-04-27T15:11:24.824Z,1.73
2023-04-27T15:13:51.821Z,1.98
2023-04-27T15:16:20.184Z,1.98
2023-04-27T15:18:47.332Z,1.75
2023-04-27T15:21:14.344Z,1.88
2023-04-27T15:23:41.431Z,1.52
2023-04-27T15:26:08.510Z,1.80
2023-04-27T15:28:36.451Z,1.55
2023-04-27T15:31:03.744Z,1.42
2023-04-27T15:33:30.794Z,1.52
2023-04-27T15:35:59.167Z,1.75
2023-04-27T15:38:26.796Z,1.83
2023-04-27T15:40:53.807Z,1.60
2023-04-27T15:43:21.881Z,1.95
2023-04-27T15:45:49.213Z,2.10
2023-04-27T15:48:16.603Z,1.80
2023-04-27T15:50:45.334Z,2.20
2023-04-27T15:53:12.984Z,1.80
2023-04-27T15:55:40.543Z,1.30
2023-04-27T15:58:07.564Z,2.53
2023-04-27T16:00:35.175Z,1.92
2023-04-27T16:03:02.312Z,1.88
2023-04-27T16:05:29.591Z,1.40
2023-04-27T16:07:56.640Z,2.45
2023-04-27T16:10:23.726Z,2.17
2023-04-27T16:12:50.733Z,1.90
2023-04-27T16:15:17.887Z,2.13
2023-04-27T16:17:45.090Z,1.50
2023-04-27T16:20:12.270Z,1.67
2023-04-27T16:22:39.332Z,2.28
2023-04-27T16:25:12.512Z,2.08
2023-04-27T16:27:40.065Z,2.50
2023-04-27T16:30:07.726Z,2.53
2023-04-27T16:32:35.739Z,2.38
2023-04-27T16:35:03.377Z,2.00
2023-04-27T16:37:30.597Z,1.45
2023-04-27T16:40:01.583Z,1.75
2023-04-27T16:42:28.920Z,1.73
2023-04-27T16:44:56.609Z,1.92
2023-04-27T16:47:23.636Z,1.92
2023-04-27T16:49:51.359Z,1.60
2023-04-27T16:52:18.743Z,1.92
2023-04-27T16:54:46.175Z,1.85
2023-04-27T16:57:13.426Z,1.90
2023-04-27T16:59:40.634Z,1.65
2023-04-27T17:02:22.874Z,1.55
2023-04-27T17:04:51.881Z,1.60
2023-04-27T17:07:19.044Z,1.80
2023-04-27T17:09:46.080Z,1.77
2023-04-27T17:12:14.970Z,1.65
2023-04-27T17:14:42.825Z,2.15
2023-04-27T17:17:10.982Z,1.77
2023-04-27T17:19:39.189Z,1.92
2023-04-27T17:22:08.189Z,1.88
2023-04-27T17:24:35.197Z,1.83
2023-04-27T17:27:04.247Z,2.13
2023-04-27T17:29:31.829Z,1.98
2023-04-27T17:31:58.907Z,2.00
2023-04-27T17:34:26.003Z,1.98
2023-04-27T17:36:53.116Z,2.15
2023-04-27T17:39:22.696Z,1.98
2023-04-27T17:41:49.751Z,2.00
2023-04-27T17:44:17.308Z,1.67
2023-04-27T17:46:49.254Z,1.90
2023-04-27T17:49:18.407Z,1.90
2023-04-27T17:51:46.478Z,2.13
2023-04-27T17:54:13.503Z,1.77
2023-04-27T17:56:40.531Z,2.10
2023-04-27T17:59:08.565Z,1.63
2023-04-27T18:01:35.839Z,1.90
2023-04-27T18:04:04.514Z,2.20
2023-04-27T18:06:32.203Z,2.20
2023-04-27T18:08:59.224Z,2.05
2023-04-27T18:11:26.505Z,1.90
2023-04-27T18:13:58.241Z,2.05
2023-04-27T18:16:25.955Z,2.33
2023-04-27T18:18:52.961Z,2.30
2023-04-27T18:21:20.000Z,2.03
2023-04-27T18:23:47.122Z,2.30
2023-04-27T18:26:14.234Z,1.67
2023-04-27T18:28:41.944Z,1.80
2023-04-27T18:31:16.436Z,2.17
2023-04-27T18:33:47.205Z,1.98
2023-04-27T18:36:14.373Z,1.83
2023-04-27T18:38:41.382Z,1.98
2023-04-27T18:41:08.601Z,2.00
2023-04-27T18:43:37.016Z,2.47
2023-04-27T18:46:04.793Z,2.38
2023-04-27T18:48:32.686Z,2.38
2023-04-27T18:50:59.676Z,2.05
2023-04-27T18:53:27.430Z,2.30
2023-04-27T18:55:54.400Z,2.38
2023-04-27T18:58:21.685Z,1.75
2023-04-27T19:00:48.822Z,2.45
2023-04-27T19:03:16.652Z,2.75
2023-04-27T19:05:44.215Z,2.92
2023-04-27T19:08:11.341Z,2.58
2023-04-27T19:10:41.274Z,2.63
2023-04-27T19:13:08.647Z,2.15
2023-04-27T19:15:35.898Z,2.47
2023-04-27T19:18:10.691Z,3.15
2023-04-27T19:20:38.967Z,2.10
2023-04-27T19:23:06.058Z,2.38
2023-04-27T19:25:33.079Z,2.42
2023-04-27T19:28:00.537Z,2.35
2023-04-27T19:30:27.830Z,2.65
2023-04-27T19:32:54.934Z,2.50
2023-04-27T19:35:23.942Z,2.90
2023-04-27T19:37:51.188Z,3.67
2023-04-27T19:40:18.544Z,2.33
2023-04-27T19:42:45.757Z,2.70
2023-04-27T19:45:13.236Z,2.78
2023-04-27T19:47:40.365Z,3.13
2023-04-27T19:50:07.892Z,3.13
2023-04-27T19:52:34.920Z,3.20
2023-04-27T19:55:01.948Z,3.15
2023-04-27T19:57:29.078Z,3.58
2023-04-27T19:59:56.455Z,2.40
2023-04-27T20:02:23.547Z,2.35
2023-04-27T20:04:51.027Z,2.80
2023-04-27T20:07:18.279Z,3.50
2023-04-27T20:09:45.320Z,2.92
2023-04-27T20:12:28.822Z,3.78
2023-04-27T20:14:59.372Z,3.00
2023-04-27T20:17:26.561Z,2.80
2023-04-27T20:19:57.249Z,3.33
2023-04-27T20:22:24.299Z,2.83
2023-04-27T20:24:51.434Z,3.10
2023-04-27T20:27:18.627Z,3.30
2023-04-27T20:29:47.420Z,2.90
2023-04-27T20:32:14.442Z,2.83
2023-04-27T20:34:41.540Z,3.88
2023-04-27T20:37:09.697Z,2.50
2023-04-27T20:39:36.973Z,3.03
2023-04-27T20:42:04.019Z,2.33
2023-04-27T20:44:32.498Z,2.67
2023-04-27T20:46:59.581Z,2.90
2023-04-27T20:49:34.527Z,2.90
2023-04-27T20:52:03.137Z,3.13
2023-04-27T20:54:33.088Z,2.35
2023-04-27T20:57:03.869Z,2.55
2023-04-27T20:59:31.092Z,2.55
2023-04-27T21:01:58.081Z,2.83
2023-04-27T21:04:25.240Z,3.13
2023-04-27T21:06:52.935Z,2.60
2023-04-27T21:09:20.014Z,2.55
2023-04-27T21:11:47.050Z,2.88
2023-04-27T21:14:14.252Z,3.03
2023-04-27T21:16:41.545Z,2.42
2023-04-27T21:19:14.794Z,2.72
2023-04-27T21:21:41.896Z,2.65
2023-04-27T21:24:09.043Z,2.47
2023-04-27T21:26:36.082Z,2.33
2023-04-27T21:29:05.895Z,2.50
2023-04-27T21:31:34.029Z,2.72
2023-04-27T21:34:02.117Z,2.60
2023-04-27T21:36:29.426Z,2.58
2023-04-27T21:38:56.446Z,2.53
2023-04-27T21:41:24.280Z,2.30
2023-04-27T21:43:51.345Z,2.45
2023-04-27T21:46:18.440Z,2.28
2023-04-27T21:48:45.550Z,2.50
2023-04-27T21:51:12.606Z,1.88
2023-04-27T21:53:39.583Z,1.63
2023-04-27T21:56:06.928Z,1.90
2023-04-27T21:58:33.884Z,2.10
2023-04-27T22:01:01.342Z,2.33
2023-04-27T22:03:29.060Z,1.83
2023-04-27T22:05:57.764Z,2.50
2023-04-27T22:08:24.938Z,1.60
2023-04-27T22:10:52.096Z,1.27
2023-04-27T22:13:19.743Z,1.70
2023-04-27T22:15:47.678Z,1.83
2023-04-27T22:18:15.679Z,1.70
2023-04-27T22:20:43.191Z,1.80
2023-04-27T22:23:10.912Z,1.98
2023-04-27T22:25:37.871Z,1.45
2023-04-27T22:28:05.020Z,1.58
2023-04-27T22:30:31.999Z,1.75
2023-04-27T22:32:59.283Z,1.65
2023-04-27T22:35:27.816Z,1.58
2023-04-27T22:37:55.991Z,1.20
2023-04-27T22:40:23.311Z,1.63
2023-04-27T22:42:50.826Z,1.98
2023-04-27T22:45:17.834Z,2.60
2023-04-27T22:47:46.116Z,2.05
2023-04-27T22:50:13.865Z,1.70
2023-04-27T22:52:44.427Z,2.15
2023-04-27T22:55:12.800Z,2.08
2023-04-27T22:57:41.596Z,1.77
2023-04-27T23:00:11.259Z,2.42
2023-04-27T23:02:41.872Z,1.80
2023-04-27T23:05:10.941Z,1.27
2023-04-27T23:07:38.947Z,1.55
2023-04-27T23:10:06.456Z,2.03
2023-04-27T23:12:33.666Z,2.22
2023-04-27T23:15:00.708Z,1.23
2023-04-27T23:17:30.833Z,2.13
2023-04-27T23:19:59.492Z,1.10
2023-04-27T23:22:27.369Z,1.95
2023-04-27T23:24:54.695Z,1.50
2023-04-27T23:27:22.770Z,1.20
2023-04-27T23:29:49.763Z,2.20
2023-04-27T23:32:17.280Z,1.95
2023-04-27T23:34:44.345Z,1.85
2023-04-27T23:37:11.389Z,2.13
2023-04-27T23:39:38.445Z,1.90
2023-04-27T23:42:05.570Z,1.88
2023-04-27T23:44:32.708Z,1.58
2023-04-27T23:46:59.722Z,2.17
2023-04-27T23:49:26.696Z,1.80
2023-04-27T23:51:53.758Z,1.70
2023-04-27T23:54:20.708Z,1.50
2023-04-27T23:56:47.721Z,1.52
2023-04-27T23:59:15.341Z,1.77
